createdAt,value
2018-08-17T00:00:41.191Z,20.86
2018-08-17T00:03:11.055Z,20.78
2018-08-17T00:05:40.841Z,20.60
2018-08-17T00:08:10.552Z,20.55
2018-08-17T00:10:40.276Z,20.49
2018-08-17T00:13:09.996Z,20.44
2018-08-17T00:15:39.804Z,20.38
2018-08-17T00:18:09.540Z,20.35
2018-08-17T00:20:39.284Z,20.33
2018-08-17T00:23:08.988Z,20.38
2018-08-17T00:25:38.661Z,20.35
2018-08-17T00:28:08.369Z,20.37
2018-08-17T00:30:38.040Z,20.24
2018-08-17T00:33:07.740Z,20.26
2018-08-17T00:35:37.447Z,20.29
2018-08-17T00:38:07.283Z,20.23
2018-08-17T00:40:36.976Z,20.13
2018-08-17T00:43:06.724Z,20.06
2018-08-17T00:45:36.452Z,20.02
2018-08-17T00:48:06.692Z,19.98
2018-08-17T00:50:36.379Z,19.97
2018-08-17T00:53:06.216Z,19.95
2018-08-17T00:55:35.967Z,19.93
2018-08-17T00:58:05.624Z,19.97
2018-08-17T01:00:35.344Z,19.88
2018-08-17T01:03:05.049Z,19.89
2018-08-17T01:05:35.000Z,19.85
2018-08-17T01:08:04.710Z,19.77
2018-08-17T01:10:34.446Z,19.83
2018-08-17T01:13:07.818Z,19.87
2018-08-17T01:15:37.724Z,19.86
2018-08-17T01:18:07.437Z,19.77
2018-08-17T01:20:37.118Z,19.69
2018-08-17T01:23:06.896Z,19.68
2018-08-17T01:25:37.006Z,19.79
2018-08-17T01:28:07.692Z,19.74
2018-08-17T01:30:37.380Z,19.70
2018-08-17T01:33:07.387Z,19.71
2018-08-17T01:35:37.073Z,19.63
2018-08-17T01:38:06.827Z,19.63
2018-08-17T01:40:36.508Z,19.66
2018-08-17T01:43:06.812Z,19.70
2018-08-17T01:45:36.504Z,19.69
2018-08-17T01:48:06.308Z,19.70
2018-08-17T01:50:35.976Z,19.68
2018-08-17T01:53:05.699Z,19.58
2018-08-17T01:55:35.405Z,19.49
2018-08-17T01:58:05.167Z,19.45
2018-08-17T02:00:34.829Z,19.51
2018-08-17T02:03:04.559Z,19.54
2018-08-17T02:05:34.306Z,19.59
2018-08-17T02:08:04.087Z,19.45
2018-08-17T02:10:33.836Z,19.38
2018-08-17T02:13:03.560Z,19.26
2018-08-17T02:15:33.212Z,19.25
2018-08-17T02:18:02.907Z,19.19
2018-08-17T02:20:32.587Z,19.23
2018-08-17T02:23:02.296Z,19.28
2018-08-17T02:25:31.996Z,19.25
2018-08-17T02:28:01.680Z,19.24
2018-08-17T02:30:31.394Z,19.23
2018-08-17T02:33:01.061Z,19.17
2018-08-17T02:35:30.744Z,19.20
2018-08-17T02:38:00.428Z,19.09
2018-08-17T02:40:30.524Z,19.05
2018-08-17T02:43:00.580Z,19.06
2018-08-17T02:45:30.295Z,19.10
2018-08-17T02:47:59.971Z,19.08
2018-08-17T02:50:29.644Z,19.06
2018-08-17T02:52:59.340Z,19.02
2018-08-17T02:55:29.058Z,19.16
2018-08-17T02:57:58.747Z,19.08
2018-08-17T03:00:28.426Z,19.09
2018-08-17T03:02:58.132Z,19.18
2018-08-17T03:05:27.837Z,19.11
2018-08-17T03:07:57.520Z,19.07
2018-08-17T03:10:27.241Z,18.99
2018-08-17T03:12:56.991Z,19.11
2018-08-17T03:15:26.693Z,19.14
2018-08-17T03:17:56.442Z,19.09
2018-08-17T03:20:26.115Z,19.02
2018-08-17T03:22:55.772Z,18.99
2018-08-17T03:25:25.496Z,18.84
2018-08-17T03:27:55.156Z,18.84
2018-08-17T03:30:24.827Z,18.89
2018-08-17T03:32:54.532Z,18.88
2018-08-17T03:35:24.212Z,18.84
2018-08-17T03:37:53.949Z,18.75
2018-08-17T03:40:23.623Z,18.66
2018-08-17T03:42:53.331Z,18.58
2018-08-17T03:45:22.984Z,18.55
2018-08-17T03:47:52.719Z,18.56
2018-08-17T03:50:22.404Z,18.58
2018-08-17T03:52:52.120Z,18.51
2018-08-17T03:55:21.799Z,18.54
2018-08-17T03:57:51.515Z,18.54
2018-08-17T04:00:21.233Z,18.58
2018-08-17T04:02:50.941Z,18.62
2018-08-17T04:05:20.612Z,18.62
2018-08-17T04:07:50.333Z,18.70
2018-08-17T04:10:20.060Z,18.67
2018-08-17T04:12:49.749Z,18.71
2018-08-17T04:15:19.457Z,18.79
2018-08-17T04:17:49.220Z,18.69
2018-08-17T04:20:18.952Z,18.68
2018-08-17T04:22:48.636Z,18.74
2018-08-17T04:25:18.400Z,18.78
2018-08-17T04:27:48.079Z,18.81
2018-08-17T04:30:17.796Z,18.93
2018-08-17T04:32:47.477Z,18.97
2018-08-17T04:35:17.180Z,19.08
2018-08-17T04:37:46.895Z,19.21
2018-08-17T04:40:16.704Z,19.33
2018-08-17T04:42:46.484Z,19.28
2018-08-17T04:45:16.163Z,19.25
2018-08-17T04:47:45.811Z,19.27
2018-08-17T04:50:15.520Z,19.29
2018-08-17T04:52:45.191Z,19.26
2018-08-17T04:55:14.868Z,19.27
2018-08-17T04:57:44.592Z,19.23
2018-08-17T05:00:14.340Z,19.15
2018-08-17T05:02:44.068Z,19.20
2018-08-17T05:05:13.752Z,19.18
2018-08-17T05:07:43.483Z,19.18
2018-08-17T05:10:13.183Z,19.26
2018-08-17T05:12:42.848Z,19.36
2018-08-17T05:15:12.604Z,19.50
2018-08-17T05:17:42.972Z,19.44
2018-08-17T05:20:12.733Z,19.42
2018-08-17T05:22:42.432Z,19.36
2018-08-17T05:25:12.131Z,19.45
2018-08-17T05:27:41.812Z,19.42
2018-08-17T05:30:11.515Z,19.47
2018-08-17T05:32:41.224Z,19.49
2018-08-17T05:35:10.901Z,19.56
2018-08-17T05:37:40.788Z,19.63
2018-08-17T05:40:10.491Z,19.75
2018-08-17T05:42:40.142Z,19.78
2018-08-17T05:45:10.676Z,19.82
2018-08-17T05:47:40.297Z,19.86
2018-08-17T05:50:10.421Z,19.96
2018-08-17T05:52:40.116Z,20.06
2018-08-17T05:55:09.859Z,20.18
2018-08-17T05:57:39.633Z,20.26
2018-08-17T06:00:10.558Z,20.29
2018-08-17T06:02:40.323Z,20.36
2018-08-17T06:05:10.417Z,20.49
2018-08-17T06:07:40.123Z,20.60
2018-08-17T06:10:10.466Z,20.64
2018-08-17T06:12:40.155Z,20.62
2018-08-17T06:15:09.987Z,20.75
2018-08-17T06:17:39.704Z,20.85
2018-08-17T06:20:09.873Z,20.98
2018-08-17T06:22:39.567Z,21.06
2018-08-17T06:25:11.876Z,21.15
2018-08-17T06:27:42.081Z,21.25
2018-08-17T06:30:14.044Z,21.34
2018-08-17T06:32:43.944Z,21.31
2018-08-17T06:35:14.551Z,21.26
2018-08-17T06:37:44.615Z,21.25
2018-08-17T06:40:14.369Z,21.25
2018-08-17T06:42:44.105Z,21.32
2018-08-17T06:45:13.852Z,21.38
2018-08-17T06:47:43.576Z,21.21
2018-08-17T06:50:13.464Z,21.14
2018-08-17T06:52:43.683Z,21.19
2018-08-17T06:55:13.555Z,21.15
2018-08-17T06:57:43.218Z,21.10
2018-08-17T07:00:15.292Z,21.08
2018-08-17T07:02:46.121Z,21.17
2018-08-17T07:05:16.063Z,21.31
2018-08-17T07:07:45.720Z,21.34
2018-08-17T07:10:15.499Z,21.33
2018-08-17T07:12:45.262Z,21.24
2018-08-17T07:15:14.972Z,21.27
2018-08-17T07:17:44.738Z,21.34
2018-08-17T07:20:14.707Z,21.45
2018-08-17T07:22:44.484Z,21.51
2018-08-17T07:25:14.188Z,21.55
2018-08-17T07:27:43.930Z,21.51
2018-08-17T07:30:13.872Z,21.61
2018-08-17T07:32:43.547Z,21.74
2018-08-17T07:35:13.270Z,21.84
2018-08-17T07:37:42.926Z,21.91
2018-08-17T07:40:12.639Z,22.02
2018-08-17T07:42:42.313Z,22.06
2018-08-17T07:45:12.061Z,22.16
2018-08-17T07:47:41.892Z,22.32
2018-08-17T07:50:15.928Z,22.42
2018-08-17T07:52:46.104Z,22.42
2018-08-17T07:55:15.911Z,22.45
2018-08-17T07:57:45.646Z,22.54
2018-08-17T08:00:15.388Z,22.59
2018-08-17T08:02:45.059Z,22.73
2018-08-17T08:05:14.795Z,22.84
2018-08-17T08:07:44.516Z,22.96
2018-08-17T08:10:14.215Z,22.96
2018-08-17T08:12:43.891Z,23.10
2018-08-17T08:15:13.603Z,23.15
2018-08-17T08:17:43.269Z,23.20
2018-08-17T08:20:24.259Z,23.20
2018-08-17T08:23:27.081Z,23.27
2018-08-17T08:25:57.380Z,23.27
2018-08-17T08:28:27.116Z,23.27
2018-08-17T08:30:56.852Z,23.32
2018-08-17T08:33:26.608Z,23.40
2018-08-17T08:35:56.347Z,23.55
2018-08-17T08:38:26.075Z,23.72
2018-08-17T08:40:55.732Z,23.93
2018-08-17T08:43:25.404Z,23.99
2018-08-17T08:45:55.180Z,24.13
2018-08-17T08:48:24.815Z,24.12
2018-08-17T08:50:54.596Z,24.24
2018-08-17T08:53:24.292Z,24.36
2018-08-17T08:55:54.004Z,24.35
2018-08-17T08:58:23.696Z,24.44
2018-08-17T09:00:53.460Z,24.64
2018-08-17T09:03:23.139Z,24.79
2018-08-17T09:05:52.856Z,24.96
2018-08-17T09:08:22.686Z,25.15
2018-08-17T09:10:52.323Z,25.27
2018-08-17T09:13:22.014Z,25.43
2018-08-17T09:15:51.661Z,25.52
2018-08-17T09:18:21.348Z,25.61
2018-08-17T09:20:51.060Z,25.68
2018-08-17T09:23:20.719Z,25.96
2018-08-17T09:25:50.692Z,25.97
2018-08-17T09:28:20.399Z,25.94
2018-08-17T09:30:50.076Z,25.97
2018-08-17T09:33:19.774Z,26.13
2018-08-17T09:35:49.460Z,26.28
2018-08-17T09:38:19.132Z,26.49
2018-08-17T09:40:48.805Z,26.55
2018-08-17T09:43:18.467Z,26.55
2018-08-17T09:45:48.123Z,26.61
2018-08-17T09:51:09.675Z,26.76
2018-08-17T09:53:39.360Z,26.82
2018-08-17T09:56:09.033Z,26.85
2018-08-17T09:58:38.719Z,26.95
2018-08-17T10:01:13.439Z,27.04
2018-08-17T10:03:43.442Z,27.17
2018-08-17T10:06:18.077Z,27.20
2018-08-17T10:08:52.905Z,27.28
2018-08-17T10:11:22.572Z,27.13
2018-08-17T10:13:52.280Z,27.29
2018-08-17T10:16:21.952Z,27.17
2018-08-17T10:18:51.620Z,26.88
2018-08-17T10:21:21.518Z,27.03
2018-08-17T10:23:51.031Z,27.42
2018-08-17T10:26:20.712Z,27.31
2018-08-17T10:28:50.413Z,27.21
2018-08-17T10:31:20.121Z,27.07
2018-08-17T10:33:50.015Z,27.04
2018-08-17T10:36:19.732Z,27.26
2018-08-17T10:38:49.427Z,27.56
2018-08-17T10:41:19.162Z,27.84
2018-08-17T10:43:48.871Z,28.25
2018-08-17T10:46:18.541Z,28.17
2018-08-17T10:48:48.321Z,28.22
2018-08-17T10:51:18.360Z,28.32
2018-08-17T10:53:48.399Z,28.55
2018-08-17T10:56:18.113Z,28.73
2018-08-17T10:58:47.776Z,28.90
2018-08-17T11:01:17.462Z,28.93
2018-08-17T11:03:47.145Z,28.89
2018-08-17T11:06:16.858Z,29.03
2018-08-17T11:08:46.544Z,29.09
2018-08-17T11:11:16.224Z,28.89
2018-08-17T11:13:45.887Z,28.48
2018-08-17T11:16:15.595Z,28.14
2018-08-17T11:18:45.393Z,27.92
2018-08-17T11:21:15.117Z,27.81
2018-08-17T11:23:44.788Z,27.75
2018-08-17T11:26:14.447Z,28.00
2018-08-17T11:28:44.178Z,28.00
2018-08-17T11:31:13.877Z,28.23
2018-08-17T11:33:43.551Z,28.53
2018-08-17T11:36:13.260Z,28.58
2018-08-17T11:38:42.916Z,28.89
2018-08-17T11:41:13.248Z,29.24
2018-08-17T11:43:42.913Z,29.44
2018-08-17T11:46:12.593Z,29.45
2018-08-17T11:48:42.310Z,29.63
2018-08-17T11:51:11.965Z,29.49
2018-08-17T11:53:41.973Z,29.70
2018-08-17T11:56:11.621Z,29.99
2018-08-17T11:58:41.300Z,30.14
2018-08-17T12:01:16.286Z,30.04
2018-08-17T12:03:45.894Z,30.15
2018-08-17T12:06:15.544Z,30.07
2018-08-17T12:08:45.285Z,29.96
2018-08-17T12:11:14.980Z,29.74
2018-08-17T12:13:44.656Z,29.80
2018-08-17T12:16:14.357Z,29.95
2018-08-17T12:18:44.045Z,30.20
2018-08-17T12:21:13.733Z,30.30
2018-08-17T12:23:43.434Z,30.40
2018-08-17T12:26:13.339Z,30.48
2018-08-17T12:28:42.995Z,30.35
2018-08-17T12:31:12.736Z,30.44
2018-08-17T12:33:42.412Z,30.56
2018-08-17T12:36:18.347Z,30.57
2018-08-17T12:38:48.044Z,30.80
2018-08-17T12:41:18.064Z,30.74
2018-08-17T12:43:47.761Z,30.87
2018-08-17T12:46:17.443Z,30.92
2018-08-17T12:48:47.342Z,30.99
2018-08-17T12:51:17.020Z,30.85
2018-08-17T12:53:47.052Z,30.47
2018-08-17T12:56:16.717Z,30.40
2018-08-17T12:58:46.350Z,30.31
2018-08-17T13:01:16.056Z,30.42
2018-08-17T13:03:45.720Z,30.20
2018-08-17T13:06:15.381Z,29.83
2018-08-17T13:08:45.055Z,29.49
2018-08-17T13:11:14.775Z,29.16
2018-08-17T13:13:44.565Z,28.97
2018-08-17T13:16:14.288Z,28.87
2018-08-17T13:18:43.940Z,28.56
2018-08-17T13:21:13.620Z,28.71
2018-08-17T13:23:43.299Z,28.68
2018-08-17T13:26:12.971Z,28.55
2018-08-17T13:28:42.660Z,28.45
2018-08-17T13:31:12.339Z,28.32
2018-08-17T13:33:42.042Z,28.67
2018-08-17T13:36:11.849Z,29.17
2018-08-17T13:38:41.519Z,29.22
2018-08-17T13:41:11.219Z,29.10
2018-08-17T13:43:40.888Z,28.71
2018-08-17T13:46:10.859Z,28.42
2018-08-17T13:48:40.584Z,28.27
2018-08-17T13:51:10.340Z,28.27
2018-08-17T13:53:40.120Z,28.44
2018-08-17T13:56:09.865Z,28.81
2018-08-17T13:58:39.852Z,28.83
2018-08-17T14:01:09.519Z,28.89
2018-08-17T14:03:39.325Z,29.17
2018-08-17T14:06:09.007Z,29.29
2018-08-17T14:08:38.704Z,29.49
2018-08-17T14:11:08.424Z,29.32
2018-08-17T14:13:38.154Z,28.96
2018-08-17T14:16:07.846Z,28.60
2018-08-17T14:18:37.522Z,28.42
2018-08-17T14:21:07.213Z,28.48
2018-08-17T14:23:36.897Z,28.30
2018-08-17T14:26:06.661Z,28.28
2018-08-17T14:28:36.333Z,28.36
2018-08-17T14:31:06.157Z,28.38
2018-08-17T14:33:35.940Z,28.14
2018-08-17T14:36:06.160Z,28.13
2018-08-17T14:38:37.092Z,28.15
2018-08-17T14:41:07.099Z,28.23
2018-08-17T14:43:36.799Z,28.25
2018-08-17T14:46:06.527Z,28.10
2018-08-17T14:48:36.236Z,28.09
2018-08-17T14:51:05.933Z,27.94
2018-08-17T14:53:35.634Z,27.83
2018-08-17T14:56:05.369Z,27.61
2018-08-17T14:58:35.045Z,27.43
2018-08-17T15:01:04.880Z,27.27
2018-08-17T15:03:34.542Z,26.97
2018-08-17T15:06:04.312Z,26.81
2018-08-17T15:08:34.386Z,26.64
2018-08-17T15:11:04.110Z,26.70
2018-08-17T15:13:33.858Z,26.68
2018-08-17T15:16:03.892Z,26.54
2018-08-17T15:18:33.631Z,26.39
2018-08-17T15:21:03.329Z,26.47
2018-08-17T15:23:33.056Z,26.37
2018-08-17T15:26:02.752Z,26.36
2018-08-17T15:28:32.506Z,26.34
2018-08-17T15:31:02.192Z,26.31
2018-08-17T15:33:32.292Z,26.40
2018-08-17T15:36:01.992Z,26.40
2018-08-17T15:38:31.676Z,26.31
2018-08-17T15:41:01.393Z,26.15
2018-08-17T15:43:31.127Z,26.03
2018-08-17T15:46:00.845Z,25.99
2018-08-17T15:48:39.316Z,25.89
2018-08-17T15:51:11.270Z,25.85
2018-08-17T15:53:42.540Z,25.81
2018-08-17T15:56:12.839Z,25.84
2018-08-17T15:58:42.739Z,25.80
2018-08-17T16:01:13.106Z,25.72
2018-08-17T16:03:43.232Z,25.59
2018-08-17T16:06:13.000Z,25.65
2018-08-17T16:08:42.797Z,25.66
2018-08-17T16:11:12.564Z,25.60
2018-08-17T16:13:42.572Z,25.58
2018-08-17T16:16:12.590Z,25.56
2018-08-17T16:18:42.628Z,25.56
2018-08-17T16:21:12.334Z,25.55
2018-08-17T16:23:42.179Z,25.46
2018-08-17T16:26:12.027Z,25.51
2018-08-17T16:28:41.977Z,25.49
2018-08-17T16:31:11.704Z,25.46
2018-08-17T16:33:41.431Z,25.49
2018-08-17T16:36:11.437Z,25.35
2018-08-17T16:38:41.329Z,25.32
2018-08-17T16:41:11.007Z,25.16
2018-08-17T16:43:45.861Z,25.19
2018-08-17T16:46:15.672Z,25.14
2018-08-17T16:48:45.470Z,25.09
2018-08-17T16:51:15.266Z,25.06
2018-08-17T16:53:45.022Z,25.05
2018-08-17T16:56:14.844Z,25.02
2018-08-17T16:58:44.544Z,25.11
2018-08-17T17:01:14.334Z,25.03
2018-08-17T17:03:44.087Z,24.94
2018-08-17T17:06:13.798Z,24.88
2018-08-17T17:08:43.845Z,24.86
2018-08-17T17:11:13.548Z,24.80
2018-08-17T17:13:43.664Z,24.76
2018-08-17T17:16:13.452Z,24.68
2018-08-17T17:18:43.213Z,24.64
2018-08-17T17:21:12.916Z,24.70
2018-08-17T17:23:47.880Z,24.66
2018-08-17T17:26:17.593Z,24.66
2018-08-17T17:28:47.361Z,24.69
2018-08-17T17:31:17.706Z,24.70
2018-08-17T17:33:47.435Z,24.77
2018-08-17T17:36:17.161Z,24.75
2018-08-17T17:38:46.856Z,24.79
2018-08-17T17:41:16.525Z,24.74
2018-08-17T17:43:46.546Z,24.70
2018-08-17T17:46:16.256Z,24.73
2018-08-17T17:48:45.944Z,24.58
2018-08-17T17:51:15.775Z,24.58
2018-08-17T17:53:45.457Z,24.50
2018-08-17T17:56:15.180Z,24.44
2018-08-17T17:58:44.888Z,24.40
2018-08-17T18:01:14.616Z,24.31
2018-08-17T18:03:46.713Z,24.21
2018-08-17T18:06:16.439Z,24.15
2018-08-17T18:08:46.167Z,24.15
2018-08-17T18:11:15.853Z,24.09
2018-08-17T18:13:45.554Z,24.11
2018-08-17T18:16:15.355Z,23.97
2018-08-17T18:18:45.092Z,24.01
2018-08-17T18:21:14.832Z,23.91
2018-08-17T18:23:44.591Z,23.86
2018-08-17T18:26:17.568Z,23.88
2018-08-17T18:28:47.388Z,23.79
2018-08-17T18:31:17.095Z,23.73
2018-08-17T18:33:46.771Z,23.66
2018-08-17T18:36:16.496Z,23.69
2018-08-17T18:38:46.191Z,23.53
2018-08-17T18:41:16.049Z,23.45
2018-08-17T18:43:45.744Z,23.40
2018-08-17T18:46:15.436Z,23.32
2018-08-17T18:48:45.210Z,23.21
2018-08-17T18:51:15.176Z,23.13
2018-08-17T18:53:45.194Z,23.14
2018-08-17T18:56:14.927Z,22.99
2018-08-17T18:58:44.687Z,22.96
2018-08-17T19:01:14.417Z,22.86
2018-08-17T19:03:44.118Z,22.82
2018-08-17T19:06:13.824Z,22.77
2018-08-17T19:08:43.530Z,22.70
2018-08-17T19:11:13.261Z,22.66
2018-08-17T19:13:43.621Z,22.68
2018-08-17T19:16:13.761Z,22.52
2018-08-17T19:18:43.891Z,22.50
2018-08-17T19:21:15.251Z,22.47
2018-08-17T19:23:45.642Z,22.41
2018-08-17T19:26:15.411Z,22.35
2018-08-17T19:28:49.528Z,22.34
2018-08-17T19:31:19.280Z,22.34
2018-08-17T19:33:48.961Z,22.34
2018-08-17T19:36:18.732Z,22.25
2018-08-17T19:38:48.528Z,22.17
2018-08-17T19:41:18.478Z,22.15
2018-08-17T19:43:48.568Z,22.06
2018-08-17T19:46:18.432Z,22.08
2018-08-17T19:48:48.513Z,22.08
2018-08-17T19:51:19.670Z,22.14
2018-08-17T19:53:49.415Z,22.09
2018-08-17T19:56:19.118Z,22.07
2018-08-17T19:58:48.832Z,22.03
2018-08-17T20:01:18.528Z,22.07
2018-08-17T20:04:08.088Z,22.01
2018-08-17T20:06:37.779Z,21.94
2018-08-17T20:09:09.163Z,21.96
2018-08-17T20:11:38.860Z,21.88
2018-08-17T20:14:08.568Z,21.79
2018-08-17T20:16:38.284Z,21.82
2018-08-17T20:19:07.981Z,21.73
2018-08-17T20:21:37.712Z,21.71
2018-08-17T20:24:07.692Z,21.69
2018-08-17T20:26:37.685Z,21.67
2018-08-17T20:29:07.199Z,21.59
2018-08-17T20:31:43.128Z,21.51
2018-08-17T20:34:12.795Z,21.41
2018-08-17T20:36:42.527Z,21.44
2018-08-17T20:39:13.616Z,21.36
2018-08-17T20:41:43.268Z,21.29
2018-08-17T20:44:12.932Z,21.27
2018-08-17T20:46:42.682Z,21.17
2018-08-17T20:49:12.331Z,21.06
2018-08-17T20:51:46.257Z,20.87
2018-08-17T20:54:15.924Z,20.83
2018-08-17T20:56:45.647Z,20.63
2018-08-17T20:59:15.673Z,20.52
2018-08-17T21:01:45.976Z,20.50
2018-08-17T21:04:15.677Z,20.33
2018-08-17T21:06:45.349Z,20.47
2018-08-17T21:09:15.715Z,20.57
2018-08-17T21:11:45.392Z,20.56
2018-08-17T21:14:15.107Z,20.56
2018-08-17T21:16:45.659Z,20.53
2018-08-17T21:19:15.363Z,20.40
2018-08-17T21:21:45.105Z,20.39
2018-08-17T21:24:14.727Z,20.31
2018-08-17T21:26:44.448Z,20.38
2018-08-17T21:29:14.197Z,20.36
2018-08-17T21:31:43.838Z,20.19
2018-08-17T21:34:14.288Z,20.14
2018-08-17T21:36:43.975Z,20.11
2018-08-17T21:39:16.024Z,20.04
2018-08-17T21:41:46.994Z,19.96
2018-08-17T21:44:17.888Z,19.85
2018-08-17T21:46:53.349Z,19.83
2018-08-17T21:49:24.289Z,19.87
2018-08-17T21:51:57.763Z,19.86
2018-08-17T21:54:29.629Z,19.82
2018-08-17T21:57:00.225Z,19.75
2018-08-17T21:59:35.852Z,19.83
2018-08-17T22:02:07.999Z,19.87
2018-08-17T22:04:37.675Z,19.81
2018-08-17T22:07:12.228Z,19.73
2018-08-17T22:09:43.164Z,19.68
2018-08-17T22:12:13.475Z,19.68
2018-08-17T22:14:45.262Z,19.61
2018-08-17T22:17:26.247Z,19.56
2018-08-17T22:19:55.931Z,19.58
2018-08-17T22:22:25.594Z,19.63
2018-08-17T22:24:57.211Z,19.66
2018-08-17T22:27:28.046Z,19.68
2018-08-17T22:29:58.864Z,19.69
2018-08-17T22:32:28.535Z,19.61
2018-08-17T22:34:58.264Z,19.51
2018-08-17T22:37:27.960Z,19.43
2018-08-17T22:39:57.637Z,19.33
2018-08-17T22:42:27.440Z,19.26
2018-08-17T22:44:57.094Z,19.28
2018-08-17T22:47:28.153Z,19.21
2018-08-17T22:49:59.427Z,19.18
2018-08-17T22:52:32.222Z,19.33
2018-08-17T22:55:02.980Z,19.22
2018-08-17T22:57:33.124Z,19.31
2018-08-17T23:00:19.070Z,19.36
2018-08-17T23:02:50.081Z,19.30
2018-08-17T23:05:22.173Z,19.30
2018-08-17T23:07:51.943Z,19.22
2018-08-17T23:10:23.959Z,19.14
2018-08-17T23:12:54.366Z,19.08
2018-08-17T23:15:24.119Z,19.09
2018-08-17T23:17:54.937Z,19.14
2018-08-17T23:20:29.954Z,19.11
2018-08-17T23:23:00.863Z,19.05
2018-08-17T23:25:30.746Z,18.93
2018-08-17T23:28:00.532Z,18.77
2018-08-17T23:30:30.276Z,18.70
2018-08-17T23:32:59.992Z,18.59
2018-08-17T23:35:29.777Z,18.64
2018-08-17T23:37:59.511Z,18.46
2018-08-17T23:40:29.216Z,18.73
2018-08-17T23:42:58.925Z,18.69
2018-08-17T23:45:34.988Z,18.63
2018-08-17T23:48:04.695Z,18.48
2018-08-17T23:50:34.404Z,18.54
2018-08-17T23:53:04.192Z,18.58
2018-08-17T23:55:33.879Z,18.57
2018-08-17T23:58:03.633Z,18.55
